Time;durP1;ratioP1;P1;durP2;ratioP2;P2;SDS_P1;SDS_P2;PMS_P1;PMS_P2;Temp;Humidity;BMP_temperature;BMP_pressure;BME280_temperature;BME280_humidity;BME280_pressure;Samples;Min_cycle;Max_cycle;Signal;HPM_P1;HPM_P2
2021/01/29 00:01:28;;;;;;;0.70;0.70;;;10.30;95.60;;;;;;6185991;28;20073;-84
2021/01/29 00:04:29;;;;;;;0.50;0.50;;;9.90;96.00;;;;;;6202529;28;20037;-84
2021/01/29 00:07:29;;;;;;;0.68;0.68;;;10.00;96.30;;;;;;6202401;28;20026;-84
2021/01/29 00:10:30;;;;;;;0.77;0.77;;;10.20;96.40;;;;;;6202416;28;20034;-84
2021/01/29 00:13:31;;;;;;;1.55;1.33;;;10.00;96.40;;;;;;6202553;28;20030;-84
2021/01/29 00:16:31;;;;;;;1.42;1.33;;;10.10;96.50;;;;;;6202842;28;20087;-84
2021/01/29 00:19:32;;;;;;;1.48;1.40;;;10.10;96.00;;;;;;6202563;28;20452;-84
2021/01/29 00:22:32;;;;;;;1.65;1.55;;;10.30;95.60;;;;;;6202378;28;20029;-84
2021/01/29 00:25:35;;;;;;;2.03;1.83;;;10.30;95.50;;;;;;6201750;28;20038;-83
2021/01/29 00:28:36;;;;;;;2.08;1.13;;;10.30;94.80;;;;;;6202448;28;20052;-84
2021/01/29 00:31:37;;;;;;;1.58;1.48;;;10.40;94.90;;;;;;6201890;28;20033;-84
2021/01/29 00:34:38;;;;;;;1.67;1.58;;;10.40;94.80;;;;;;6201791;28;20076;-84
2021/01/29 00:37:39;;;;;;;1.77;1.63;;;10.40;94.70;;;;;;6185938;28;20056;-84
2021/01/29 00:40:40;;;;;;;0.98;0.98;;;10.40;94.00;;;;;;6201673;28;20037;-84
2021/01/29 00:43:40;;;;;;;0.98;0.98;;;10.50;93.80;;;;;;6200983;28;20497;-84
2021/01/29 00:46:41;;;;;;;1.15;0.98;;;10.50;93.10;;;;;;6201590;28;20080;-84
2021/01/29 00:49:41;;;;;;;2.10;1.45;;;10.50;93.50;;;;;;6184221;28;20124;-84
2021/01/29 00:52:42;;;;;;;1.65;1.42;;;10.60;92.70;;;;;;6201438;28;20033;-84
2021/01/29 00:55:43;;;;;;;1.48;1.30;;;10.60;92.90;;;;;;6201251;28;20041;-84
2021/01/29 00:58:43;;;;;;;1.42;1.33;;;10.60;92.80;;;;;;6185267;28;20091;-85
2021/01/29 01:01:44;;;;;;;1.90;1.13;;;10.60;92.70;;;;;;6184967;28;20065;-84
2021/01/29 01:04:44;;;;;;;1.70;1.60;;;10.50;92.80;;;;;;6201276;28;20613;-84
2021/01/29 01:07:45;;;;;;;1.92;1.60;;;10.50;92.60;;;;;;6201034;28;20034;-85
2021/01/29 01:10:46;;;;;;;2.15;1.80;;;10.50;91.90;;;;;;6200718;28;20412;-84
2021/01/29 01:13:47;;;;;;;3.13;1.70;;;10.50;92.60;;;;;;6201044;28;20034;-84
2021/01/29 01:16:48;;;;;;;2.17;1.60;;;10.50;92.70;;;;;;6201372;28;20026;-84
2021/01/29 01:19:49;;;;;;;1.90;1.70;;;10.50;92.90;;;;;;6201655;28;20026;-84
2021/01/29 01:22:50;;;;;;;2.08;1.17;;;11.00;93.50;;;;;;6201214;28;20053;-84
2021/01/29 01:25:50;;;;;;;2.65;1.80;;;10.50;93.20;;;;;;6200721;28;20047;-85
2021/01/29 01:28:51;;;;;;;2.03;1.70;;;10.40;93.50;;;;;;6184936;28;20387;-84
2021/01/29 01:31:51;;;;;;;2.53;1.15;;;10.50;93.60;;;;;;6200826;28;20086;-84
2021/01/29 01:34:52;;;;;;;2.05;1.40;;;10.30;93.80;;;;;;6200825;28;20037;-84
2021/01/29 01:37:53;;;;;;;1.60;1.30;;;10.30;94.00;;;;;;6200971;28;20034;-85
2021/01/29 01:40:53;;;;;;;0.90;0.90;;;10.30;93.90;;;;;;6200792;28;20399;-84
2021/01/29 01:43:54;;;;;;;1.42;1.33;;;10.30;93.40;;;;;;6184465;28;20034;-85
2021/01/29 01:46:55;;;;;;;1.35;1.25;;;10.30;93.70;;;;;;6200976;28;20041;-84
2021/01/29 01:50:22;;;;;;;0.90;0.90;;;10.30;92.80;;;;;;6200563;28;20033;-84
2021/01/29 01:53:37;;;;;;;1.23;1.13;;;10.30;91.00;;;;;;6181413;28;20391;-84
2021/01/29 01:56:44;;;;;;;1.27;1.17;;;10.30;91.40;;;;;;6202392;28;20097;-84
2021/01/29 01:59:48;;;;;;;1.17;0.95;;;10.30;90.50;;;;;;6200829;28;20458;-84
2021/01/29 02:02:49;;;;;;;1.00;1.00;;;10.30;91.60;;;;;;6186141;28;20080;-85
2021/01/29 02:05:50;;;;;;;1.40;1.30;;;10.40;92.40;;;;;;6188325;28;20046;-84
2021/01/29 02:08:51;;;;;;;1.42;1.33;;;10.00;98.00;;;;;;6165901;28;20468;-84
2021/01/29 02:11:53;;;;;;;2.40;1.95;;;10.20;98.00;;;;;;6165676;28;20057;-85
2021/01/29 02:14:53;;;;;;;0.95;0.80;;;10.20;93.10;;;;;;6165176;28;20023;-85
2021/01/29 02:18:22;;;;;;;2.20;0.90;;;10.20;93.50;;;;;;6165282;28;20057;-84
2021/01/29 02:21:43;;;;;;;0.80;0.60;;;10.40;96.60;;;;;;6219966;28;20072;-84
2021/01/29 02:25:10;;;;;;;0.82;0.82;;;10.30;91.70;;;;;;6221901;28;20364;-84
2021/01/29 02:28:18;;;;;;;0.82;0.82;;;10.30;91.80;;;;;;6183454;28;20030;-85
2021/01/29 02:31:39;;;;;;;0.88;0.88;;;10.30;92.30;;;;;;6168432;28;20476;-84
2021/01/29 02:35:01;;;;;;;0.45;0.45;;;10.30;92.50;;;;;;6176390;28;20040;-84
2021/01/29 02:38:25;;;;;;;1.00;1.00;;;10.30;91.60;;;;;;6221413;28;20037;-84
2021/01/29 02:42:07;;;;;;;0.77;0.75;;;10.30;91.90;;;;;;6198070;28;20284;-84
2021/01/29 02:45:26;;;;;;;0.63;0.63;;;10.20;91.90;;;;;;6172396;28;20113;-84
2021/01/29 02:48:58;;;;;;;0.68;0.68;;;10.20;91.30;;;;;;6165796;28;20022;-84
2021/01/29 02:52:22;;;;;;;1.05;0.55;;;10.20;91.20;;;;;;6180437;28;20030;-84
2021/01/29 02:55:26;;;;;;;0.60;0.60;;;10.10;90.80;;;;;;6196241;28;20471;-84
2021/01/29 02:58:50;;;;;;;0.75;0.75;;;10.10;92.00;;;;;;6148771;28;20041;-84
2021/01/29 03:01:55;;;;;;;0.63;0.63;;;10.00;91.40;;;;;;6205121;28;20058;-84
2021/01/29 03:05:02;;;;;;;0.70;0.70;;;9.90;91.60;;;;;;6220134;28;20077;-84
2021/01/29 03:08:23;;;;;;;0.77;0.77;;;9.80;91.50;;;;;;6221177;28;20038;-84
2021/01/29 03:11:39;;;;;;;1.08;1.08;;;9.90;90.80;;;;;;6206381;28;20361;-84
2021/01/29 03:14:48;;;;;;;0.65;0.55;;;9.80;92.10;;;;;;6220168;28;20040;-84
2021/01/29 03:17:58;;;;;;;0.60;0.60;;;9.80;91.60;;;;;;6204113;28;20025;-85
2021/01/29 03:21:18;;;;;;;0.60;0.60;;;9.80;90.90;;;;;;6206152;28;20026;-84
2021/01/29 03:24:25;;;;;;;0.60;0.60;;;9.80;91.30;;;;;;6219564;28;20036;-84
2021/01/29 03:27:29;;;;;;;0.50;0.50;;;9.90;92.00;;;;;;6203713;28;20030;-84
2021/01/29 03:30:32;;;;;;;1.70;1.10;;;10.00;97.00;;;;;;6203869;28;20030;-85
2021/01/29 03:33:34;;;;;;;0.70;0.70;;;9.70;92.10;;;;;;6187245;28;20032;-84
2021/01/29 03:36:38;;;;;;;0.60;0.60;;;9.70;92.30;;;;;;6203545;28;20081;-84
2021/01/29 03:39:39;;;;;;;0.63;0.63;;;9.70;92.50;;;;;;6203467;28;20453;-84
2021/01/29 03:42:55;;;;;;;0.93;0.93;;;9.70;92.90;;;;;;6202654;28;20026;-85
2021/01/29 03:46:05;;;;;;;0.70;0.70;;;9.70;92.40;;;;;;6219680;28;20048;-84
2021/01/29 03:49:14;;;;;;;0.63;0.63;;;9.80;92.20;;;;;;6219447;28;20472;-84
2021/01/29 03:52:21;;;;;;;0.50;0.50;;;10.00;92.50;;;;;;6220474;28;20029;-84
2021/01/29 03:55:37;;;;;;;0.45;0.45;;;10.00;91.90;;;;;;6219464;28;20153;-84
2021/01/29 03:58:56;;;;;;;0.50;0.50;;;10.20;91.90;;;;;;6218843;28;20033;-84
2021/01/29 04:02:21;;;;;;;1.02;1.02;;;10.30;91.90;;;;;;6218802;28;20061;-85
2021/01/29 04:05:26;;;;;;;0.85;0.55;;;10.30;92.50;;;;;;6218569;28;20560;-84
2021/01/29 04:08:33;;;;;;;0.28;0.28;;;10.50;92.90;;;;;;6202637;28;20120;-84
2021/01/29 04:11:40;;;;;;;0.40;0.40;;;10.50;93.30;;;;;;6218567;28;20026;-84
2021/01/29 04:15:06;;;;;;;0.32;0.32;;;10.60;93.10;;;;;;6202760;28;20499;-84
2021/01/29 04:18:28;;;;;;;0.30;0.30;;;10.60;93.00;;;;;;6217744;28;20392;-84
2021/01/29 04:21:35;;;;;;;0.30;0.30;;;10.70;93.00;;;;;;6218392;28;20137;-85
2021/01/29 04:24:42;;;;;;;0.60;0.60;;;10.90;92.80;;;;;;6201699;28;20038;-83
2021/01/29 04:27:45;;;;;;;0.50;0.50;;;11.00;92.50;;;;;;6202479;28;20112;-83
2021/01/29 04:30:46;;;;;;;;;;;11.00;92.30;;;;;;6202537;28;20038;-84
2021/01/29 04:33:52;;;;;;;0.50;0.50;;;10.90;92.50;;;;;;6218359;28;19905;-83
2021/01/29 04:36:54;;;;;;;0.90;0.90;;;10.90;91.50;;;;;;6202552;28;20026;-83
2021/01/29 04:39:57;;;;;;;0.65;0.65;;;11.00;92.80;;;;;;6201855;28;20026;-84
2021/01/29 04:43:09;;;;;;;0.45;0.45;;;11.00;92.70;;;;;;6185613;28;20030;-83
2021/01/29 04:46:52;;;;;;;0.43;0.43;;;10.90;91.70;;;;;;6218544;28;20474;-83
2021/01/29 04:50:15;;;;;;;0.50;0.50;;;11.00;91.90;;;;;;6218178;28;20046;-83
2021/01/29 04:53:27;;;;;;;0.47;0.47;;;11.00;91.90;;;;;;6219163;28;20053;-83
2021/01/29 04:56:59;;;;;;;0.80;0.80;;;11.00;92.20;;;;;;6217817;28;20044;-84
2021/01/29 05:00:42;;;;;;;0.70;0.70;;;11.10;91.50;;;;;;6219284;28;20089;-83
2021/01/29 05:03:57;;;;;;;1.00;1.00;;;11.00;91.60;;;;;;6204607;28;20069;-83
2021/01/29 05:07:25;;;;;;;0.70;0.70;;;11.00;92.50;;;;;;6217642;28;20056;-83
2021/01/29 05:10:32;;;;;;;0.50;0.50;;;11.00;91.40;;;;;;6217633;28;20029;-83
2021/01/29 05:13:35;;;;;;;0.68;0.68;;;11.20;97.10;;;;;;6201068;28;20037;-83
2021/01/29 05:17:04;;;;;;;0.80;0.80;;;11.10;91.20;;;;;;6217529;28;20054;-82
2021/01/29 05:20:29;;;;;;;0.93;0.93;;;11.10;91.30;;;;;;6217092;28;20444;-83
2021/01/29 05:24:03;;;;;;;1.08;0.93;;;11.40;91.50;;;;;;6218824;28;20112;-83
2021/01/29 05:27:25;;;;;;;0.88;0.88;;;11.00;91.20;;;;;;6219321;28;20057;-84
2021/01/29 05:30:47;;;;;;;1.70;1.08;;;11.00;91.20;;;;;;6217975;28;20038;-83
2021/01/29 05:34:09;;;;;;;1.07;1.00;;;11.00;90.70;;;;;;6217472;28;20372;-83
2021/01/29 05:37:47;;;;;;;0.77;0.77;;;10.80;90.70;;;;;;6222866;28;20044;-82
2021/01/29 05:41:11;;;;;;;1.20;1.15;;;10.90;90.50;;;;;;6209663;28;20091;-83
2021/01/29 05:44:11;;;;;;;1.17;0.55;;;11.00;90.30;;;;;;6222334;28;20577;-83
2021/01/29 05:47:40;;;;;;;0.73;0.73;;;11.00;90.90;;;;;;6223490;28;20061;-83
2021/01/29 05:50:58;;;;;;;0.73;0.73;;;11.20;90.40;;;;;;6223588;28;20464;-84
2021/01/29 05:54:23;;;;;;;1.10;1.10;;;11.20;90.30;;;;;;6222049;28;20038;-83
2021/01/29 05:58:02;;;;;;;0.90;0.90;;;11.20;90.00;;;;;;6222014;28;20061;-83
2021/01/29 06:01:30;;;;;;;1.40;1.30;;;11.20;89.70;;;;;;6221492;28;20053;-83
2021/01/29 06:04:49;;;;;;;2.05;1.27;;;11.20;91.30;;;;;;6223571;28;20111;-82
2021/01/29 06:08:17;;;;;;;0.73;0.73;;;10.80;92.50;;;;;;6221602;28;20381;-82
2021/01/29 06:12:02;;;;;;;0.75;0.75;;;10.80;91.50;;;;;;6222123;28;20029;-82
2021/01/29 06:15:56;;;;;;;1.10;1.10;;;10.40;92.40;;;;;;6195845;28;20395;-83
2021/01/29 06:19:23;;;;;;;1.08;1.08;;;10.30;93.40;;;;;;6198702;28;20050;-83
2021/01/29 06:22:45;;;;;;;0.90;0.88;;;10.30;93.10;;;;;;6221928;28;20026;-84
2021/01/29 06:26:09;;;;;;;1.20;1.00;;;10.30;93.00;;;;;;6223336;28;20380;-85
2021/01/29 06:29:35;;;;;;;2.72;1.77;;;10.20;93.30;;;;;;6209829;28;20038;-82
2021/01/29 06:32:57;;;;;;;1.42;1.10;;;10.40;99.90;;;;;;6221159;28;20044;-87
2021/01/29 06:36:29;;;;;;;1.73;1.25;;;10.10;93.70;;;;;;6222783;28;20439;-89
2021/01/29 06:39:44;;;;;;;1.85;1.20;;;10.10;93.50;;;;;;6191902;28;20550;-85
2021/01/29 06:42:48;;;;;;;1.73;1.63;;;10.10;93.20;;;;;;6221623;28;20030;-85
2021/01/29 06:46:13;;;;;;;1.05;0.95;;;10.00;93.00;;;;;;6216689;28;20137;-85
2021/01/29 06:49:33;;;;;;;1.10;1.10;;;10.00;92.50;;;;;;6221978;28;20030;-85
2021/01/29 06:52:43;;;;;;;1.55;1.40;;;10.00;92.70;;;;;;6205417;28;20041;-84
2021/01/29 06:55:52;;;;;;;0.93;0.93;;;10.10;99.00;;;;;;6219743;28;20376;-84
2021/01/29 06:59:08;;;;;;;1.27;1.23;;;10.00;94.00;;;;;;6219350;28;20049;-84
2021/01/29 07:02:27;;;;;;;3.35;1.40;;;10.00;93.50;;;;;;6219758;28;20046;-85
2021/01/29 07:05:54;;;;;;;1.23;1.23;;;10.00;93.80;;;;;;6219938;28;20088;-85
2021/01/29 07:09:00;;;;;;;1.20;1.10;;;10.00;93.50;;;;;;6218405;28;20472;-84
2021/01/29 07:12:24;;;;;;;1.17;1.15;;;10.10;93.40;;;;;;6218722;28;20121;-88
2021/01/29 07:15:42;;;;;;;1.38;1.00;;;10.00;92.70;;;;;;6222506;28;20030;-82
2021/01/29 07:19:00;;;;;;;0.93;0.93;;;10.20;99.90;;;;;;6202173;28;20065;-83
2021/01/29 07:22:29;;;;;;;1.48;1.30;;;10.10;92.90;;;;;;6221243;28;20042;-84
2021/01/29 07:25:51;;;;;;;1.27;1.27;;;10.10;92.90;;;;;;6213102;28;20360;-86
2021/01/29 07:29:17;;;;;;;0.93;0.93;;;10.10;92.90;;;;;;6204134;28;20072;-85
2021/01/29 07:32:41;;;;;;;0.85;0.85;;;10.10;96.50;;;;;;6210809;28;20487;-86
2021/01/29 07:35:47;;;;;;;1.88;1.77;;;10.20;93.00;;;;;;6219494;28;20096;-84
2021/01/29 07:42:16;;;;;;;3.05;1.75;;;10.40;99.90;;;;;;6324200;27;20348;-84
2021/01/29 07:46:14;;;;;;;1.98;1.50;;;10.30;92.20;;;;;;6287864;28;20493;-85
2021/01/29 07:49:30;;;;;;;1.13;1.13;;;10.30;92.00;;;;;;6194246;28;20018;-87
2021/01/29 07:52:39;;;;;;;0.60;0.60;;;10.20;99.90;;;;;;6181822;28;20492;-85
2021/01/29 07:56:04;;;;;;;1.88;1.20;;;10.30;90.30;;;;;;6286510;28;20058;-85
2021/01/29 07:59:30;;;;;;;1.73;1.45;;;10.30;90.40;;;;;;6295984;28;20059;-87
2021/01/29 08:02:59;;;;;;;1.38;1.25;;;10.30;89.50;;;;;;6283466;28;20477;-87
2021/01/29 08:06:04;;;;;;;1.63;1.05;;;10.30;89.40;;;;;;6287684;28;20029;-85
2021/01/29 08:09:28;;;;;;;1.00;1.00;;;10.40;89.40;;;;;;6299241;28;20386;-84
2021/01/29 08:12:29;;;;;;;1.48;1.40;;;10.50;90.00;;;;;;6311512;28;20028;-86
2021/01/29 08:15:30;;;;;;;1.88;1.70;;;10.60;90.50;;;;;;6277854;28;20378;-86
2021/01/29 08:19:09;;;;;;;2.42;1.23;;;10.70;88.60;;;;;;6294374;28;20020;-86
2021/01/29 08:22:33;;;;;;;2.42;1.20;;;10.60;86.20;;;;;;6311952;28;20048;-86
2021/01/29 08:25:42;;;;;;;0.93;0.93;;;10.60;86.50;;;;;;6269989;28;20140;-86
2021/01/29 08:28:51;;;;;;;1.33;1.30;;;10.60;85.40;;;;;;6294968;28;20062;-87
2021/01/29 08:31:55;;;;;;;1.42;1.38;;;10.60;84.90;;;;;;6311774;28;20378;-87
2021/01/29 08:35:20;;;;;;;1.10;1.10;;;10.50;85.00;;;;;;6301309;28;20043;-86
2021/01/29 08:38:35;;;;;;;1.65;1.55;;;10.70;84.30;;;;;;6312041;28;20024;-87
2021/01/29 08:42:07;;;;;;;3.10;1.73;;;11.10;83.20;;;;;;6271820;28;20060;-84
2021/01/29 08:45:23;;;;;;;2.25;1.90;;;11.50;81.60;;;;;;6301626;28;20036;-85
2021/01/29 08:48:44;;;;;;;2.63;1.75;;;13.30;86.00;;;;;;6294533;28;20032;-87
2021/01/29 08:52:22;;;;;;;2.60;1.90;;;11.90;85.50;;;;;;6286321;28;20025;-88
2021/01/29 08:55:44;;;;;;;2.15;1.42;;;11.40;77.80;;;;;;6295012;28;20031;-89
2021/01/29 08:58:59;;;;;;;2.53;2.13;;;11.20;79.70;;;;;;6294201;28;20466;-86
2021/01/29 09:02:30;;;;;;;1.95;1.75;;;10.90;81.20;;;;;;6277221;28;20786;-87
2021/01/29 09:05:34;;;;;;;2.03;1.70;;;10.80;81.60;;;;;;6294032;28;20513;-86
2021/01/29 09:08:35;;;;;;;3.40;1.73;;;10.70;85.30;;;;;;6260408;28;20020;-79
2021/01/29 09:11:36;;;;;;;2.47;1.38;;;10.30;86.80;;;;;;6260267;28;20024;-79
2021/01/29 09:14:43;;;;;;;3.20;1.80;;;9.90;88.30;;;;;;6276653;28;20025;-80
2021/01/29 09:17:49;;;;;;;2.38;1.42;;;10.20;90.80;;;;;;6259242;28;20024;-82
2021/01/29 09:21:17;;;;;;;1.45;1.35;;;9.50;91.20;;;;;;6261655;28;20042;-82
2021/01/29 09:24:47;;;;;;;2.72;1.70;;;9.30;91.60;;;;;;6293917;28;20029;-83
2021/01/29 09:28:03;;;;;;;2.97;1.85;;;9.20;91.50;;;;;;6293972;28;20051;-80
2021/01/29 09:31:11;;;;;;;2.00;1.80;;;9.20;92.00;;;;;;6291471;28;20032;-80
2021/01/29 09:34:20;;;;;;;2.45;1.70;;;9.10;92.30;;;;;;6260409;28;20054;-83
2021/01/29 09:37:24;;;;;;;4.15;1.80;;;9.10;93.20;;;;;;6277516;28;20074;-81
2021/01/29 09:40:30;;;;;;;3.13;1.83;;;9.10;93.20;;;;;;6259357;28;20064;-83
2021/01/29 09:43:40;;;;;;;3.40;1.50;;;9.20;93.40;;;;;;6277100;28;20055;-80
2021/01/29 09:46:42;;;;;;;2.55;1.50;;;9.30;99.90;;;;;;6292796;28;20028;-82
2021/01/29 09:49:43;;;;;;;5.82;2.10;;;9.30;99.90;;;;;;6275609;28;20051;-82
2021/01/29 09:53:07;;;;;;;3.20;2.20;;;9.70;95.00;;;;;;6276630;28;20064;-82
2021/01/29 09:56:18;;;;;;;3.60;2.30;;;10.50;99.90;;;;;;6293318;28;20150;-82
2021/01/29 09:59:53;;;;;;;2.30;1.27;;;10.80;99.90;;;;;;6260340;28;20044;-82
2021/01/29 10:03:15;;;;;;;3.92;2.38;;;11.10;99.90;;;;;;6254548;28;20068;-83
2021/01/29 10:06:16;;;;;;;5.05;3.40;;;;;;;;;;6262640;28;20032;-82
2021/01/29 10:09:52;;;;;;;2.65;2.10;;;10.70;92.00;;;;;;6290851;28;20028;-82
2021/01/29 10:13:21;;;;;;;4.80;2.17;;;12.60;87.10;;;;;;6271984;28;20025;-83
2021/01/29 10:17:00;;;;;;;5.63;4.00;;;10.50;86.30;;;;;;6275610;28;20465;-81
2021/01/29 10:20:12;;;;;;;2.58;2.20;;;10.20;86.40;;;;;;6291729;28;20045;-82
2021/01/29 10:23:35;;;;;;;5.50;4.28;;;9.80;89.90;;;;;;6259800;28;20058;-83
2021/01/29 10:26:38;;;;;;;;;;;9.70;90.80;;;;;;6292654;28;20016;-83
2021/01/29 10:29:42;;;;;;;2.13;1.98;;;9.70;97.60;;;;;;6273853;28;20007;-82
2021/01/29 10:33:10;;;;;;;2.83;2.10;;;9.30;90.90;;;;;;6291820;28;20119;-83
2021/01/29 10:36:23;;;;;;;4.18;2.47;;;9.30;91.30;;;;;;6277563;28;20036;-83
2021/01/29 10:39:24;;;;;;;2.83;1.55;;;9.30;91.70;;;;;;6275600;28;20546;-85
2021/01/29 10:42:32;;;;;;;2.60;1.65;;;9.30;91.10;;;;;;6258470;28;20061;-82
2021/01/29 10:46:15;;;;;;;1.73;1.25;;;10.50;99.90;;;;;;6275258;28;20028;-83
2021/01/29 10:49:22;;;;;;;;;;;12.40;89.00;;;;;;6291210;28;20102;-82
2021/01/29 10:53:00;;;;;;;1.55;1.45;;;12.00;92.30;;;;;;6291594;28;19954;-82
2021/01/29 10:56:03;;;;;;;1.70;1.40;;;11.90;80.00;;;;;;6275116;28;20024;-83
2021/01/29 10:59:11;;;;;;;4.30;1.67;;;13.20;76.00;;;;;;6291950;28;20032;-85
2021/01/29 11:02:13;;;;;;;1.77;1.30;;;14.30;74.30;;;;;;6291312;28;20024;-83
2021/01/29 11:05:24;;;;;;;3.20;2.17;;;14.50;68.60;;;;;;6275307;28;20028;-83
2021/01/29 11:08:29;;;;;;;2.38;1.45;;;13.90;67.60;;;;;;6258413;28;20497;-83
2021/01/29 11:11:34;;;;;;;2.72;1.55;;;13.20;70.20;;;;;;6274796;28;20028;-83
2021/01/29 11:14:55;;;;;;;3.53;1.45;;;13.10;71.40;;;;;;6271555;28;20036;-82
2021/01/29 11:18:10;;;;;;;3.03;1.80;;;11.90;71.20;;;;;;6274629;28;20024;-80
2021/01/29 11:21:37;;;;;;;1.40;1.30;;;11.40;74.30;;;;;;6274668;28;20040;-77
2021/01/29 11:24:59;;;;;;;2.00;1.33;;;11.10;74.50;;;;;;6275338;28;20499;-79
2021/01/29 11:28:13;;;;;;;1.35;1.30;;;10.70;75.80;;;;;;6290625;28;20032;-80
2021/01/29 11:31:38;;;;;;;3.63;1.67;;;10.50;76.20;;;;;;6275569;28;20037;-79
2021/01/29 11:34:38;;;;;;;1.73;1.42;;;10.30;78.50;;;;;;6291673;28;20025;-80
2021/01/29 11:38:00;;;;;;;2.30;1.77;;;10.10;80.50;;;;;;6274257;28;20023;-79
2021/01/29 11:41:23;;;;;;;2.88;1.60;;;10.00;80.70;;;;;;6291952;28;20139;-79
2021/01/29 11:44:55;;;;;;;4.28;1.55;;;9.90;81.90;;;;;;6292913;28;20466;-79
2021/01/29 11:48:09;;;;;;;3.40;1.60;;;9.70;81.60;;;;;;6292703;28;20032;-78
2021/01/29 11:51:32;;;;;;;2.75;1.52;;;9.60;83.60;;;;;;6259648;28;20120;-80
2021/01/29 11:54:55;;;;;;;4.03;1.58;;;9.30;85.00;;;;;;6276173;28;20110;-80
2021/01/29 11:58:21;;;;;;;4.47;2.10;;;9.00;86.00;;;;;;6276518;28;20032;-79
2021/01/29 12:01:31;;;;;;;3.55;1.50;;;8.70;88.10;;;;;;6308090;28;20037;-80
2021/01/29 12:05:01;;;;;;;2.42;1.67;;;8.60;90.30;;;;;;6290773;28;20115;-79
2021/01/29 12:08:25;;;;;;;2.10;1.65;;;8.50;91.20;;;;;;6284978;28;20127;-80
2021/01/29 12:11:58;;;;;;;1.60;1.50;;;8.50;91.10;;;;;;6290805;28;20032;-79
2021/01/29 12:15:31;;;;;;;1.08;0.93;;;8.00;99.90;;;;;;6291050;28;20064;-79
2021/01/29 12:18:33;;;;;;;1.13;1.13;;;8.20;88.50;;;;;;6266946;28;20037;-79
2021/01/29 12:21:54;;;;;;;2.80;2.05;;;8.20;90.90;;;;;;6274558;28;20051;-79
2021/01/29 12:25:12;;;;;;;1.10;1.10;;;8.20;91.40;;;;;;6275146;28;20028;-80
2021/01/29 12:28:23;;;;;;;2.17;1.20;;;8.20;99.90;;;;;;6294924;28;20462;-79
2021/01/29 12:31:43;;;;;;;4.10;2.13;;;8.40;99.90;;;;;;6261986;28;20058;-80
2021/01/29 12:34:45;;;;;;;5.13;2.88;;;8.40;99.10;;;;;;6296965;28;20082;-79
2021/01/29 12:38:07;;;;;;;1.77;1.35;;;8.50;96.40;;;;;;6261880;28;20029;-81
2021/01/29 12:41:16;;;;;;;2.10;1.90;;;8.40;92.00;;;;;;6294635;28;20078;-79
2021/01/29 12:44:47;;;;;;;2.92;1.75;;;8.40;91.00;;;;;;6295061;28;20037;-79
2021/01/29 12:47:54;;;;;;;1.95;1.67;;;8.40;92.00;;;;;;6280597;28;20074;-79
2021/01/29 12:50:59;;;;;;;2.63;1.83;;;8.40;96.50;;;;;;6295285;28;20028;-79
2021/01/29 12:58:09;;;;;;;3.97;1.80;;;10.20;91.40;;;;;;6296595;28;20121;-80
2021/01/29 13:01:14;;;;;;;3.55;2.30;;;9.20;91.80;;;;;;6279534;28;20079;-79
2021/01/29 13:04:19;;;;;;;4.68;2.10;;;9.10;91.30;;;;;;6279158;28;20063;-82
2021/01/29 13:07:23;;;;;;;3.33;1.98;;;9.20;91.00;;;;;;6295011;28;20031;-82
2021/01/29 13:11:08;;;;;;;8.85;3.42;;;9.20;90.80;;;;;;6280484;28;20032;-79
2021/01/29 13:14:15;;;;;;;6.65;2.58;;;9.10;90.80;;;;;;6226968;28;20396;-80
2021/01/29 13:17:31;;;;;;;7.97;3.15;;;9.10;90.20;;;;;;6245916;28;20044;-80
2021/01/29 13:20:35;;;;;;;8.85;2.50;;;8.70;90.70;;;;;;6264289;28;20036;-83
2021/01/29 13:23:39;;;;;;;8.18;2.92;;;9.20;91.20;;;;;;6261364;28;20119;-80
2021/01/29 13:26:42;;;;;;;9.52;2.42;;;9.30;90.20;;;;;;6261526;28;20363;-81
2021/01/29 13:29:43;;;;;;;6.90;2.63;;;9.60;90.10;;;;;;6261593;28;20028;-80
2021/01/29 13:32:44;;;;;;;9.57;2.67;;;9.50;90.20;;;;;;6277305;28;20167;-80
2021/01/29 13:35:45;;;;;;;6.07;2.30;;;9.50;88.10;;;;;;6277256;28;20060;-81
2021/01/29 13:38:46;;;;;;;4.47;2.40;;;9.40;89.40;;;;;;6277182;28;20482;-82
2021/01/29 13:41:54;;;;;;;5.35;2.30;;;9.50;87.30;;;;;;6277228;28;20056;-81
2021/01/29 13:45:04;;;;;;;6.95;2.50;;;9.40;86.40;;;;;;6277823;28;20032;-85
2021/01/29 13:48:20;;;;;;;6.82;2.55;;;9.40;85.70;;;;;;6279671;28;20029;-83
2021/01/29 13:51:32;;;;;;;3.63;1.92;;;9.50;86.50;;;;;;6278155;28;20028;-82
2021/01/29 13:54:35;;;;;;;9.35;3.05;;;9.50;85.30;;;;;;6260436;28;20032;-80
2021/01/29 13:57:42;;;;;;;5.70;2.95;;;9.40;84.00;;;;;;6292781;28;20484;-79
2021/01/29 14:01:00;;;;;;;6.85;3.30;;;9.50;84.70;;;;;;6277642;28;20035;-86
2021/01/29 14:04:03;;;;;;;8.90;4.18;;;9.40;84.10;;;;;;6260452;28;20032;-83
2021/01/29 14:07:04;;;;;;;7.20;3.40;;;9.40;83.50;;;;;;6260368;28;20454;-82
2021/01/29 14:10:10;;;;;;;4.43;2.20;;;9.30;85.90;;;;;;6259907;28;20035;-83
2021/01/29 14:13:14;;;;;;;7.95;3.05;;;9.30;83.00;;;;;;6260305;28;20386;-82
2021/01/29 14:16:20;;;;;;;6.35;2.50;;;9.30;99.50;;;;;;6276542;28;20032;-80
2021/01/29 14:19:45;;;;;;;7.47;3.67;;;9.20;84.90;;;;;;6260020;28;20511;-82
2021/01/29 14:22:49;;;;;;;11.55;3.67;;;9.30;84.80;;;;;;6262699;28;20443;-80
2021/01/29 14:26:11;;;;;;;5.65;2.40;;;9.20;87.50;;;;;;6292654;28;20496;-84
2021/01/29 14:29:37;;;;;;;7.28;2.65;;;9.10;88.00;;;;;;6260783;28;20470;-84
2021/01/29 14:32:57;;;;;;;6.03;2.95;;;9.00;92.80;;;;;;6292941;28;20068;-83
2021/01/29 14:36:11;;;;;;;6.57;2.55;;;8.80;95.50;;;;;;6292257;28;20616;-85
2021/01/29 14:39:47;;;;;;;8.98;2.85;;;8.80;90.50;;;;;;6275980;28;20398;-82
2021/01/29 14:43:25;;;;;;;9.15;4.40;;;8.90;90.50;;;;;;6268862;28;20076;-83
2021/01/29 14:47:03;;;;;;;9.70;3.08;;;9.00;89.90;;;;;;6293626;28;20095;-85
2021/01/29 14:50:25;;;;;;;9.32;2.60;;;9.00;88.90;;;;;;6286646;28;20049;-84
2021/01/29 14:53:33;;;;;;;6.70;2.67;;;9.10;87.30;;;;;;6279207;28;20028;-85
2021/01/29 14:56:37;;;;;;;10.80;3.10;;;9.00;87.60;;;;;;6276540;28;20029;-86
2021/01/29 15:00:08;;;;;;;8.93;3.20;;;10.50;89.70;;;;;;6292037;28;20040;-85
2021/01/29 15:03:20;;;;;;;8.25;2.90;;;8.90;87.80;;;;;;6268060;28;20060;-86
2021/01/29 15:06:24;;;;;;;9.85;3.83;;;8.90;90.00;;;;;;6276058;28;20030;-86
2021/01/29 15:09:27;;;;;;;9.38;3.47;;;8.80;90.20;;;;;;6259128;28;20127;-86
2021/01/29 15:12:30;;;;;;;10.88;3.53;;;8.70;90.60;;;;;;6259079;28;20036;-85
2021/01/29 15:15:53;;;;;;;8.55;2.83;;;8.60;91.10;;;;;;6259656;28;20029;-85
2021/01/29 15:18:53;;;;;;;9.48;3.13;;;8.60;90.90;;;;;;6261288;28;20028;-87
2021/01/29 15:22:03;;;;;;;8.68;3.20;;;8.50;90.80;;;;;;6258596;28;20114;-85
2021/01/29 15:25:20;;;;;;;11.05;3.88;;;8.60;91.00;;;;;;6260473;28;20047;-83
2021/01/29 15:28:29;;;;;;;10.73;3.95;;;9.20;99.90;;;;;;6291151;28;20028;-82
2021/01/29 15:31:29;;;;;;;7.53;2.72;;;10.00;99.90;;;;;;6291472;28;20040;-84
2021/01/29 15:34:59;;;;;;;7.70;2.90;;;10.00;94.90;;;;;;6291761;28;20033;-79
2021/01/29 15:38:07;;;;;;;9.40;2.65;;;9.60;90.10;;;;;;6274898;28;20025;-86
2021/01/29 15:41:29;;;;;;;17.40;3.28;;;9.90;92.30;;;;;;6274733;28;20078;-87
2021/01/29 15:44:30;;;;;;;6.95;2.75;;;;;;;;;;6291027;28;20035;-84
2021/01/29 15:47:53;;;;;;;8.40;3.00;;;9.00;99.90;;;;;;6291112;28;20029;-81
2021/01/29 15:50:57;;;;;;;5.97;2.30;;;9.20;99.90;;;;;;6275454;28;20118;-79
2021/01/29 15:54:00;;;;;;;11.55;2.50;;;9.20;99.90;;;;;;6290166;28;20078;-77
2021/01/29 15:57:01;;;;;;;4.28;2.40;;;8.80;95.00;;;;;;6274861;28;20028;-78
2021/01/29 16:00:06;;;;;;;7.15;2.25;;;8.70;88.10;;;;;;6292314;28;20033;-78
2021/01/29 16:03:08;;;;;;;2.92;2.13;;;8.60;89.70;;;;;;6277947;28;20039;-80
2021/01/29 16:06:09;;;;;;;4.00;2.03;;;8.50;90.30;;;;;;6279701;28;20477;-78
2021/01/29 16:09:34;;;;;;;3.95;1.90;;;8.40;88.50;;;;;;6279336;28;20036;-80
2021/01/29 16:12:49;;;;;;;7.80;2.40;;;8.30;87.90;;;;;;6285386;28;20488;-75
2021/01/29 16:15:50;;;;;;;2.35;1.63;;;9.00;95.30;;;;;;6297038;28;20029;-80
2021/01/29 16:18:53;;;;;;;3.00;1.75;;;9.00;85.20;;;;;;6278996;28;20036;-82
2021/01/29 16:21:53;;;;;;;8.38;2.83;;;8.80;85.40;;;;;;6278934;28;20478;-75
2021/01/29 16:24:54;;;;;;;8.38;2.20;;;8.70;92.00;;;;;;6277329;28;20043;-75
2021/01/29 16:27:55;;;;;;;8.30;5.28;;;8.70;90.70;;;;;;6296614;28;20025;-81
2021/01/29 16:31:07;;;;;;;5.18;2.35;;;8.60;86.00;;;;;;6262513;28;20474;-84
2021/01/29 16:34:13;;;;;;;7.22;2.40;;;8.30;86.50;;;;;;6280058;28;20153;-82
2021/01/29 16:37:15;;;;;;;4.95;2.25;;;8.20;89.10;;;;;;6281477;28;20041;-84
2021/01/29 16:40:18;;;;;;;3.38;2.72;;;8.00;90.00;;;;;;6296495;28;20474;-85
2021/01/29 16:43:25;;;;;;;4.40;2.33;;;7.90;90.40;;;;;;6263099;28;20052;-85
2021/01/29 16:46:28;;;;;;;3.25;1.98;;;7.80;90.90;;;;;;6263230;28;20020;-86
2021/01/29 16:49:30;;;;;;;9.30;2.65;;;7.80;91.00;;;;;;6280761;28;20029;-84
2021/01/29 16:52:32;;;;;;;5.28;2.05;;;7.70;91.60;;;;;;6279839;28;20162;-86
2021/01/29 16:55:35;;;;;;;2.50;1.48;;;7.50;92.30;;;;;;6261984;28;20036;-83
2021/01/29 16:58:48;;;;;;;6.22;1.90;;;7.40;92.10;;;;;;6275920;28;20056;-83
2021/01/29 17:01:49;;;;;;;4.13;2.15;;;7.20;92.90;;;;;;6278742;28;20050;-85